createdAt,value
2022-10-26T00:00:15.223Z,67.50
2022-10-26T00:01:15.244Z,62.92
2022-10-26T00:02:15.301Z,65.35
2022-10-26T00:03:15.188Z,64.49
2022-10-26T00:04:15.189Z,64.92
2022-10-26T00:05:15.164Z,62.79
2022-10-26T00:06:15.152Z,63.76
2022-10-26T00:07:15.145Z,64.46
2022-10-26T00:08:15.138Z,63.66
2022-10-26T00:09:15.140Z,64.01
2022-10-26T00:10:15.122Z,64.96
2022-10-26T00:11:15.113Z,64.58
2022-10-26T00:12:15.097Z,66.57
2022-10-26T00:13:15.083Z,64.14
2022-10-26T00:14:15.103Z,65.06
2022-10-26T00:15:15.069Z,62.32
2022-10-26T00:16:15.070Z,63.91
2022-10-26T00:17:15.046Z,63.58
2022-10-26T00:18:15.032Z,59.70
2022-10-26T00:19:15.023Z,63.60
2022-10-26T00:20:15.025Z,63.60
2022-10-26T00:21:15.005Z,66.77
2022-10-26T00:22:14.991Z,65.12
2022-10-26T00:23:14.986Z,63.89
2022-10-26T00:24:14.977Z,63.48
2022-10-26T00:25:14.976Z,63.42
2022-10-26T00:26:14.945Z,60.58
2022-10-26T00:27:15.946Z,64.35
2022-10-26T00:28:14.937Z,64.87
2022-10-26T00:29:14.937Z,64.41
2022-10-26T00:30:14.917Z,63.01
2022-10-26T00:31:14.903Z,58.62
2022-10-26T00:32:14.882Z,62.54
2022-10-26T00:33:15.884Z,64.85
2022-10-26T00:34:14.888Z,59.23
2022-10-26T00:35:22.878Z,61.14
2022-10-26T00:36:17.013Z,56.29
2022-10-26T00:37:14.846Z,59.51
2022-10-26T00:38:14.822Z,62.74
2022-10-26T00:39:15.841Z,62.97
2022-10-26T00:40:14.816Z,64.17
2022-10-26T00:41:14.811Z,64.25
2022-10-26T00:42:14.796Z,61.24
2022-10-26T00:43:14.786Z,61.18
2022-10-26T00:44:14.786Z,65.07
2022-10-26T00:45:14.766Z,62.66
2022-10-26T00:46:14.756Z,59.49
2022-10-26T00:47:14.757Z,64.94
2022-10-26T00:48:14.737Z,65.26
2022-10-26T00:49:14.758Z,64.21
2022-10-26T00:50:14.713Z,64.43
2022-10-26T00:51:14.710Z,66.45
2022-10-26T00:52:14.696Z,63.25
2022-10-26T00:53:14.686Z,64.36
2022-10-26T00:54:14.686Z,61.08
2022-10-26T00:55:14.662Z,57.73
2022-10-26T00:56:14.656Z,62.80
2022-10-26T00:57:14.647Z,62.29
2022-10-26T00:58:14.637Z,63.24
2022-10-26T00:59:14.639Z,58.79
2022-10-26T01:00:14.619Z,63.15
2022-10-26T01:01:14.683Z,62.00
2022-10-26T01:02:14.602Z,63.18
2022-10-26T01:03:14.703Z,67.41
2022-10-26T01:04:14.590Z,63.78
2022-10-26T01:05:14.569Z,63.70
2022-10-26T01:06:14.558Z,64.05
2022-10-26T01:07:14.582Z,61.16
2022-10-26T01:08:14.537Z,62.40
2022-10-26T01:09:14.539Z,60.60
2022-10-26T01:10:14.522Z,64.38
2022-10-26T01:11:14.508Z,64.54
2022-10-26T01:12:14.502Z,61.50
2022-10-26T01:13:14.489Z,60.57
2022-10-26T01:14:14.492Z,59.49
2022-10-26T01:15:14.475Z,63.63
2022-10-26T01:16:14.476Z,58.96
2022-10-26T01:17:14.551Z,62.16
2022-10-26T01:18:14.471Z,63.92
2022-10-26T01:19:14.466Z,62.32
2022-10-26T01:20:14.428Z,62.32
2022-10-26T01:21:14.419Z,64.17
2022-10-26T01:22:14.410Z,59.24
2022-10-26T01:23:14.398Z,61.37
2022-10-26T01:24:14.399Z,60.01
2022-10-26T01:25:14.385Z,61.51
2022-10-26T01:26:14.370Z,62.20
2022-10-26T01:27:14.362Z,67.31
2022-10-26T01:28:14.349Z,66.98
2022-10-26T01:29:14.352Z,68.07
2022-10-26T01:30:14.327Z,64.50
2022-10-26T01:31:14.319Z,65.17
2022-10-26T01:32:14.312Z,61.16
2022-10-26T01:33:14.302Z,63.56
2022-10-26T01:34:14.296Z,61.39
2022-10-26T01:35:15.282Z,62.02
2022-10-26T01:36:14.270Z,62.79
2022-10-26T01:37:14.261Z,64.55
2022-10-26T01:38:14.261Z,61.88
2022-10-26T01:39:14.384Z,64.51
2022-10-26T01:40:14.228Z,62.07
2022-10-26T01:41:14.219Z,64.15
2022-10-26T01:42:14.209Z,60.55
2022-10-26T01:43:14.203Z,63.74
2022-10-26T01:44:14.204Z,62.83
2022-10-26T01:45:14.180Z,64.25
2022-10-26T01:46:14.230Z,63.43
2022-10-26T01:47:14.160Z,61.73
2022-10-26T01:48:14.153Z,60.60
2022-10-26T01:49:14.153Z,62.71
2022-10-26T01:50:14.133Z,60.97
2022-10-26T01:51:14.122Z,62.70
2022-10-26T01:52:14.112Z,63.60
2022-10-26T01:53:14.116Z,62.94
2022-10-26T01:54:14.109Z,62.29
2022-10-26T01:55:14.087Z,58.91
2022-10-26T01:56:14.183Z,63.36
2022-10-26T01:57:14.066Z,60.72
2022-10-26T01:58:14.056Z,62.20
2022-10-26T01:59:14.067Z,65.04
2022-10-26T02:00:14.044Z,63.94
2022-10-26T02:01:14.057Z,64.77
2022-10-26T02:02:14.016Z,63.80
2022-10-26T02:03:14.013Z,62.25
2022-10-26T02:04:14.044Z,62.37
2022-10-26T02:05:13.988Z,61.04
2022-10-26T02:06:13.992Z,62.07
2022-10-26T02:07:13.981Z,61.38
2022-10-26T02:08:13.962Z,61.40
2022-10-26T02:09:13.964Z,61.44
2022-10-26T02:10:13.950Z,64.46
2022-10-26T02:11:13.937Z,65.65
2022-10-26T02:12:13.923Z,63.34
2022-10-26T02:13:13.913Z,64.17
2022-10-26T02:15:13.888Z,63.16
2022-10-26T02:16:13.877Z,63.48
2022-10-26T02:17:13.871Z,63.82
2022-10-26T02:18:13.857Z,63.90
2022-10-26T02:19:13.862Z,62.01
2022-10-26T02:20:13.841Z,64.52
2022-10-26T02:21:13.831Z,62.21
2022-10-26T02:22:13.822Z,61.87
2022-10-26T02:23:13.806Z,62.31
2022-10-26T02:24:13.826Z,61.81
2022-10-26T02:25:13.792Z,63.08
2022-10-26T02:26:13.780Z,61.27
2022-10-26T02:27:13.798Z,61.60
2022-10-26T02:28:13.759Z,61.64
2022-10-26T02:29:13.762Z,60.59
2022-10-26T02:30:13.742Z,63.60
2022-10-26T02:31:13.729Z,63.56
2022-10-26T02:32:13.737Z,56.28
2022-10-26T02:33:13.714Z,62.29
2022-10-26T02:34:13.718Z,63.27
2022-10-26T02:35:13.691Z,64.15
2022-10-26T02:36:13.680Z,64.24
2022-10-26T02:37:13.672Z,64.34
2022-10-26T02:38:13.662Z,65.91
2022-10-26T02:39:13.690Z,63.45
2022-10-26T02:40:13.654Z,62.19
2022-10-26T02:41:13.631Z,59.83
2022-10-26T02:42:13.619Z,63.15
2022-10-26T02:43:13.620Z,65.12
2022-10-26T02:44:13.602Z,62.50
2022-10-26T02:45:13.596Z,62.02
2022-10-26T02:46:13.575Z,65.26
2022-10-26T02:47:13.569Z,64.70
2022-10-26T02:48:13.557Z,63.03
2022-10-26T02:49:13.548Z,61.43
2022-10-26T02:50:13.550Z,62.84
2022-10-26T02:51:13.527Z,62.91
2022-10-26T02:52:13.540Z,62.08
2022-10-26T02:53:13.509Z,63.19
2022-10-26T02:54:13.504Z,64.63
2022-10-26T02:55:13.504Z,62.83
2022-10-26T02:56:13.481Z,60.67
2022-10-26T02:57:13.469Z,63.06
2022-10-26T02:58:13.461Z,64.98
2022-10-26T02:59:13.453Z,67.24
2022-10-26T03:00:13.494Z,64.45
2022-10-26T03:01:13.462Z,63.39
2022-10-26T03:02:13.421Z,62.99
2022-10-26T03:03:13.413Z,62.33
2022-10-26T03:04:13.453Z,62.75
2022-10-26T03:05:13.404Z,62.49
2022-10-26T03:06:13.383Z,61.44
2022-10-26T03:07:13.378Z,65.25
2022-10-26T03:08:13.375Z,62.95
2022-10-26T03:09:13.352Z,64.32
2022-10-26T03:10:13.355Z,64.05
2022-10-26T03:11:13.333Z,64.05
2022-10-26T03:12:13.324Z,63.16
2022-10-26T03:13:13.323Z,60.14
2022-10-26T03:14:13.302Z,63.52
2022-10-26T03:15:13.306Z,65.33
2022-10-26T03:16:13.283Z,64.13
2022-10-26T03:17:13.273Z,64.78
2022-10-26T03:18:13.265Z,63.76
2022-10-26T03:19:13.254Z,63.37
2022-10-26T03:20:13.253Z,64.77
2022-10-26T03:21:13.234Z,62.38
2022-10-26T03:22:13.224Z,62.00
2022-10-26T03:23:13.214Z,65.96
2022-10-26T03:24:14.202Z,62.73
2022-10-26T03:25:13.205Z,59.22
2022-10-26T03:26:13.181Z,60.58
2022-10-26T03:27:13.173Z,63.78
2022-10-26T03:28:13.164Z,63.16
2022-10-26T03:29:13.164Z,64.70
2022-10-26T03:30:13.157Z,63.79
2022-10-26T03:31:13.131Z,64.50
2022-10-26T03:32:13.124Z,64.22
2022-10-26T03:33:13.115Z,64.34
2022-10-26T03:34:45.013Z,65.41
2022-10-26T03:35:13.096Z,65.55
2022-10-26T03:36:13.079Z,65.26
2022-10-26T03:37:13.071Z,64.47
2022-10-26T03:38:15.923Z,66.39
2022-10-26T03:39:14.047Z,65.16
2022-10-26T03:40:13.067Z,63.59
2022-10-26T03:41:13.039Z,63.54
2022-10-26T03:42:13.033Z,62.76
2022-10-26T03:43:13.044Z,62.19
2022-10-26T03:44:14.005Z,61.16
2022-10-26T03:45:13.008Z,63.93
2022-10-26T03:46:12.981Z,64.49
2022-10-26T03:47:12.969Z,64.78
2022-10-26T03:48:12.962Z,64.45
2022-10-26T03:49:12.951Z,62.56
2022-10-26T03:50:12.954Z,62.29
2022-10-26T03:51:12.930Z,62.57
2022-10-26T03:52:12.918Z,63.76
2022-10-26T03:53:12.914Z,63.29
2022-10-26T03:54:12.902Z,63.26
2022-10-26T03:55:12.909Z,63.83
2022-10-26T03:56:12.887Z,64.70
2022-10-26T03:57:12.873Z,64.21
2022-10-26T03:58:12.907Z,65.01
2022-10-26T03:59:12.857Z,64.08
2022-10-26T04:00:12.853Z,67.47
2022-10-26T04:01:12.882Z,66.17
2022-10-26T04:02:12.825Z,66.89
2022-10-26T04:03:12.820Z,66.82
2022-10-26T04:04:12.837Z,64.39
2022-10-26T04:05:12.812Z,68.95
2022-10-26T04:06:12.787Z,67.34
2022-10-26T04:07:12.779Z,66.88
2022-10-26T04:08:12.766Z,66.47
2022-10-26T04:09:12.785Z,65.52
2022-10-26T04:10:12.771Z,66.47
2022-10-26T04:11:12.738Z,64.81
2022-10-26T04:12:12.740Z,65.91
2022-10-26T04:13:12.719Z,66.29
2022-10-26T04:14:12.709Z,65.28
2022-10-26T04:15:12.713Z,66.64
2022-10-26T04:16:12.701Z,66.05
2022-10-26T04:17:12.684Z,63.14
2022-10-26T04:18:12.684Z,64.43
2022-10-26T04:19:12.660Z,66.45
2022-10-26T04:20:12.659Z,64.70
2022-10-26T04:21:12.636Z,65.96
2022-10-26T04:22:12.634Z,65.77
2022-10-26T04:23:12.666Z,65.13
2022-10-26T04:24:12.609Z,66.86
2022-10-26T04:25:12.612Z,66.20
2022-10-26T04:26:12.583Z,66.09
2022-10-26T04:27:12.582Z,66.55
2022-10-26T04:28:12.571Z,63.59
2022-10-26T04:29:12.560Z,64.30
2022-10-26T04:30:12.565Z,66.46
2022-10-26T04:31:12.544Z,64.82
2022-10-26T04:32:12.537Z,62.09
2022-10-26T04:33:12.532Z,61.68
2022-10-26T04:34:13.025Z,66.33
2022-10-26T04:35:15.314Z,66.95
2022-10-26T04:36:12.499Z,65.47
2022-10-26T04:37:12.484Z,61.83
2022-10-26T04:38:12.480Z,60.48
2022-10-26T04:39:12.469Z,63.87
2022-10-26T04:40:12.482Z,65.95
2022-10-26T04:41:12.456Z,64.72
2022-10-26T04:42:12.439Z,65.31
2022-10-26T04:43:12.423Z,65.10
2022-10-26T04:44:12.418Z,67.10
2022-10-26T04:45:12.419Z,65.41
2022-10-26T04:46:15.838Z,64.53
2022-10-26T04:47:13.385Z,64.72
2022-10-26T04:48:12.449Z,63.84
2022-10-26T04:49:12.367Z,65.99
2022-10-26T04:50:12.372Z,66.65
2022-10-26T04:51:12.347Z,66.22
2022-10-26T04:52:12.336Z,67.08
2022-10-26T04:53:12.337Z,67.14
2022-10-26T04:54:12.321Z,65.22
2022-10-26T04:55:12.335Z,64.12
2022-10-26T04:56:12.317Z,62.71
2022-10-26T04:57:12.285Z,65.40
2022-10-26T04:58:12.281Z,64.14
2022-10-26T04:59:12.277Z,65.17
2022-10-26T05:00:12.265Z,66.78
2022-10-26T05:01:12.384Z,66.23
2022-10-26T05:02:12.376Z,66.48
2022-10-26T05:03:12.222Z,64.82
2022-10-26T05:04:12.237Z,64.29
2022-10-26T05:05:14.301Z,66.31
2022-10-26T05:06:12.205Z,63.94
2022-10-26T05:07:12.179Z,63.30
2022-10-26T05:08:12.168Z,64.33
2022-10-26T05:09:12.166Z,65.49
2022-10-26T05:10:12.160Z,64.56
2022-10-26T05:11:12.142Z,64.29
2022-10-26T05:12:12.126Z,65.33
2022-10-26T05:13:12.119Z,63.14
2022-10-26T05:14:12.107Z,66.49
2022-10-26T05:15:12.110Z,65.52
2022-10-26T05:16:12.089Z,66.91
2022-10-26T05:17:12.078Z,63.24
2022-10-26T05:18:12.091Z,64.36
2022-10-26T05:19:13.057Z,66.16
2022-10-26T05:20:12.056Z,66.32
2022-10-26T05:21:12.035Z,66.63
2022-10-26T05:22:12.023Z,66.44
2022-10-26T05:23:12.048Z,67.27
2022-10-26T05:24:12.611Z,67.29
2022-10-26T05:25:12.004Z,66.62
2022-10-26T05:26:11.985Z,67.59
2022-10-26T05:27:11.974Z,65.38
2022-10-26T05:28:11.971Z,64.18
2022-10-26T05:29:11.953Z,64.30
2022-10-26T05:30:11.955Z,66.58
2022-10-26T05:31:11.932Z,65.28
2022-10-26T05:32:11.918Z,65.55
2022-10-26T05:33:11.909Z,64.75
2022-10-26T05:34:11.898Z,63.81
2022-10-26T05:35:11.897Z,64.62
2022-10-26T05:36:11.874Z,64.28
2022-10-26T05:37:11.874Z,61.27
2022-10-26T05:38:11.893Z,64.43
2022-10-26T05:39:11.854Z,64.58
2022-10-26T05:40:11.849Z,63.61
2022-10-26T05:41:11.823Z,63.90
2022-10-26T05:42:11.826Z,66.19
2022-10-26T05:43:11.810Z,65.60
2022-10-26T05:44:11.794Z,65.05
2022-10-26T05:45:11.801Z,65.76
2022-10-26T05:46:11.776Z,64.12
2022-10-26T05:47:11.763Z,65.30
2022-10-26T05:48:11.757Z,64.74
2022-10-26T05:49:11.745Z,65.93
2022-10-26T05:50:11.748Z,63.32
2022-10-26T05:51:11.723Z,65.44
2022-10-26T05:52:11.715Z,65.01
2022-10-26T05:53:11.707Z,64.51
2022-10-26T05:54:13.994Z,63.90
2022-10-26T05:55:12.699Z,66.24
2022-10-26T05:56:11.674Z,65.50
2022-10-26T05:57:11.663Z,64.80
2022-10-26T05:58:11.658Z,64.42
2022-10-26T05:59:11.651Z,63.18
2022-10-26T06:00:11.649Z,65.13
2022-10-26T06:01:11.824Z,65.35
2022-10-26T06:02:11.794Z,66.38
2022-10-26T06:03:11.609Z,64.23
2022-10-26T06:04:11.598Z,65.24
2022-10-26T06:05:11.605Z,63.64
2022-10-26T06:06:11.577Z,65.60
2022-10-26T06:07:11.562Z,66.61
2022-10-26T06:08:11.553Z,63.63
2022-10-26T06:09:11.542Z,63.53
2022-10-26T06:10:11.536Z,64.68
2022-10-26T06:11:11.534Z,64.52
2022-10-26T06:12:13.477Z,65.02
2022-10-26T06:13:11.509Z,62.74
2022-10-26T06:14:11.494Z,63.30
2022-10-26T06:15:11.502Z,63.88
2022-10-26T06:16:11.478Z,63.07
2022-10-26T06:17:11.467Z,62.59
2022-10-26T06:18:11.457Z,60.25
2022-10-26T06:19:11.447Z,63.07
2022-10-26T06:21:11.440Z,61.91
2022-10-26T06:22:11.433Z,62.15
2022-10-26T06:23:11.408Z,61.95
2022-10-26T06:24:11.396Z,63.35
2022-10-26T06:25:11.400Z,62.07
2022-10-26T06:26:11.379Z,60.56
2022-10-26T06:27:14.601Z,62.69
2022-10-26T06:28:12.358Z,63.22
2022-10-26T06:29:11.343Z,64.07
2022-10-26T06:30:11.337Z,65.08
2022-10-26T06:31:11.337Z,62.71
2022-10-26T06:32:11.315Z,63.79
2022-10-26T06:33:24.998Z,63.02
2022-10-26T06:34:13.299Z,63.70
2022-10-26T06:35:11.290Z,62.61
2022-10-26T06:36:11.269Z,63.02
2022-10-26T06:37:11.259Z,61.58
2022-10-26T06:38:11.250Z,62.69
2022-10-26T06:39:11.238Z,65.88
2022-10-26T06:40:11.242Z,64.88
2022-10-26T06:41:11.214Z,64.06
2022-10-26T06:42:11.205Z,61.94
2022-10-26T06:43:11.204Z,64.41
2022-10-26T06:44:11.190Z,63.36
2022-10-26T06:45:11.235Z,62.87
2022-10-26T06:46:11.169Z,62.89
2022-10-26T06:47:11.164Z,62.51
2022-10-26T06:48:11.151Z,62.72
2022-10-26T06:49:11.142Z,61.48
2022-10-26T06:50:11.143Z,62.78
2022-10-26T06:51:11.121Z,62.62
2022-10-26T06:52:11.114Z,61.84
2022-10-26T06:53:11.111Z,62.99
2022-10-26T06:54:11.093Z,63.34
2022-10-26T06:55:11.095Z,62.71
2022-10-26T06:56:11.071Z,62.38
2022-10-26T06:57:11.060Z,63.53
2022-10-26T06:58:11.050Z,60.77
2022-10-26T06:59:11.042Z,62.05
2022-10-26T07:00:11.061Z,62.02
2022-10-26T07:01:11.087Z,63.10
2022-10-26T07:02:11.167Z,61.74
2022-10-26T07:03:10.999Z,61.51
2022-10-26T07:04:10.989Z,63.06
2022-10-26T07:05:10.979Z,62.76
2022-10-26T07:06:11.037Z,63.34
2022-10-26T07:07:10.959Z,64.26
2022-10-26T07:08:10.958Z,62.92
2022-10-26T07:09:10.940Z,60.18
2022-10-26T07:10:10.929Z,61.42
2022-10-26T07:11:10.925Z,62.39
2022-10-26T07:12:10.913Z,61.53
2022-10-26T07:13:10.898Z,62.05
2022-10-26T07:14:10.917Z,62.67
2022-10-26T07:15:10.900Z,62.44
2022-10-26T07:16:10.875Z,62.17
2022-10-26T07:17:10.853Z,63.13
2022-10-26T07:18:10.844Z,62.54
2022-10-26T07:19:10.838Z,62.10
2022-10-26T07:20:10.847Z,61.53
2022-10-26T07:21:10.819Z,63.32
2022-10-26T07:22:10.801Z,62.14
2022-10-26T07:23:10.791Z,63.39
2022-10-26T07:24:10.779Z,62.83
2022-10-26T07:25:10.771Z,63.33
2022-10-26T07:26:10.769Z,61.76
2022-10-26T07:27:10.750Z,62.48
2022-10-26T07:28:10.802Z,61.17
2022-10-26T07:29:10.727Z,62.18
2022-10-26T07:30:10.716Z,61.25
2022-10-26T07:31:10.718Z,64.26
2022-10-26T07:32:10.694Z,63.47
2022-10-26T07:33:10.699Z,63.91
2022-10-26T07:34:10.674Z,63.51
2022-10-26T07:35:10.667Z,63.48
2022-10-26T07:36:10.660Z,61.89
2022-10-26T07:37:11.655Z,61.67
2022-10-26T07:38:10.637Z,63.28
2022-10-26T07:39:10.625Z,63.44
2022-10-26T07:40:10.682Z,63.15
2022-10-26T07:41:10.620Z,62.67
2022-10-26T07:42:10.590Z,63.09
2022-10-26T07:43:10.583Z,64.12
2022-10-26T07:44:10.572Z,62.45
2022-10-26T07:45:10.557Z,64.72
2022-10-26T07:46:10.611Z,62.89
2022-10-26T07:47:10.538Z,62.62
2022-10-26T07:48:10.532Z,63.61
2022-10-26T07:49:10.520Z,62.97
2022-10-26T07:50:10.517Z,62.43
2022-10-26T07:51:10.513Z,62.73
2022-10-26T07:52:10.489Z,62.02
2022-10-26T07:53:10.484Z,63.30
2022-10-26T07:54:10.473Z,62.75
2022-10-26T07:55:10.473Z,65.36
2022-10-26T07:56:10.463Z,63.87
2022-10-26T07:57:10.453Z,61.73
2022-10-26T07:58:10.428Z,64.98
2022-10-26T07:59:10.428Z,64.86
2022-10-26T08:00:10.413Z,64.07
2022-10-26T08:01:10.549Z,61.84
2022-10-26T08:02:10.456Z,62.67
2022-10-26T08:03:10.379Z,63.68
2022-10-26T08:04:10.366Z,63.23
2022-10-26T08:05:10.371Z,63.65
2022-10-26T08:06:10.353Z,64.55
2022-10-26T08:07:10.338Z,65.80
2022-10-26T08:08:10.323Z,62.63
2022-10-26T08:09:10.322Z,64.25
2022-10-26T08:10:10.317Z,63.74
2022-10-26T08:11:10.293Z,63.92
2022-10-26T08:12:10.287Z,65.96
2022-10-26T08:13:10.274Z,63.73
2022-10-26T08:14:10.263Z,63.92
2022-10-26T08:15:10.261Z,62.13
2022-10-26T08:16:10.246Z,62.90
2022-10-26T08:17:10.237Z,64.23
2022-10-26T08:18:10.218Z,64.72
2022-10-26T08:19:10.212Z,65.87
2022-10-26T08:20:10.211Z,66.13
2022-10-26T08:21:11.475Z,64.66
2022-10-26T08:22:11.232Z,64.40
2022-10-26T08:23:10.167Z,63.86
2022-10-26T08:24:10.159Z,64.36
2022-10-26T08:25:10.173Z,66.22
2022-10-26T08:26:10.136Z,64.97
2022-10-26T08:27:10.136Z,65.06
2022-10-26T08:28:10.125Z,63.58
2022-10-26T08:29:10.108Z,64.45
2022-10-26T08:30:10.105Z,64.31
2022-10-26T08:31:11.086Z,64.26
2022-10-26T08:32:10.081Z,65.29
2022-10-26T08:33:10.069Z,65.68
2022-10-26T08:34:10.060Z,65.52
2022-10-26T08:35:10.061Z,65.69
2022-10-26T08:36:10.041Z,66.50
2022-10-26T08:37:10.028Z,66.28
2022-10-26T08:38:10.027Z,65.02
2022-10-26T08:39:10.004Z,66.41
2022-10-26T08:40:09.993Z,65.62
2022-10-26T08:41:09.996Z,66.22
2022-10-26T08:42:09.974Z,65.54
2022-10-26T08:43:09.977Z,66.53
2022-10-26T08:44:09.953Z,65.53
2022-10-26T08:45:09.938Z,66.93
2022-10-26T08:46:09.942Z,64.88
2022-10-26T08:47:09.978Z,65.07
2022-10-26T08:48:09.907Z,64.68
2022-10-26T08:49:09.892Z,65.05
2022-10-26T08:50:09.885Z,65.88
2022-10-26T08:51:09.891Z,67.38
2022-10-26T08:52:09.867Z,65.27
2022-10-26T08:53:09.855Z,66.88
2022-10-26T08:54:09.843Z,67.09
2022-10-26T08:55:09.840Z,66.58
2022-10-26T08:56:09.821Z,67.58
2022-10-26T08:57:09.812Z,65.65
2022-10-26T08:58:09.807Z,66.72
2022-10-26T08:59:09.790Z,64.66
2022-10-26T09:00:09.791Z,64.13
2022-10-26T09:01:09.900Z,64.97
2022-10-26T09:02:09.761Z,65.98
2022-10-26T09:03:09.747Z,63.39
2022-10-26T09:04:09.737Z,64.20
2022-10-26T09:05:09.742Z,62.90
2022-10-26T09:06:09.721Z,61.57
2022-10-26T09:07:09.713Z,63.31
2022-10-26T09:08:09.697Z,62.09
2022-10-26T09:09:09.703Z,63.80
2022-10-26T09:10:09.698Z,62.81
2022-10-26T09:11:09.665Z,64.94
2022-10-26T09:12:09.654Z,62.85
2022-10-26T09:13:09.643Z,64.40
2022-10-26T09:14:09.634Z,64.19
2022-10-26T09:15:09.633Z,62.25
2022-10-26T09:16:09.611Z,63.25
2022-10-26T09:17:09.606Z,63.63
2022-10-26T09:18:09.595Z,60.78
2022-10-26T09:19:09.585Z,60.97
2022-10-26T09:20:09.583Z,61.56
2022-10-26T09:21:09.560Z,61.38
2022-10-26T09:22:09.553Z,60.87
2022-10-26T09:23:09.539Z,62.53
2022-10-26T09:24:09.527Z,62.38
2022-10-26T09:25:09.532Z,62.87
2022-10-26T09:26:09.514Z,62.21
2022-10-26T09:27:09.501Z,63.10
2022-10-26T09:28:09.487Z,61.73
2022-10-26T09:29:09.476Z,62.78
2022-10-26T09:30:09.481Z,61.14
2022-10-26T09:31:09.456Z,61.46
2022-10-26T09:32:09.450Z,61.77
2022-10-26T09:33:09.443Z,61.33
2022-10-26T09:34:09.425Z,61.10
2022-10-26T09:35:41.334Z,62.76
2022-10-26T09:36:13.094Z,63.22
2022-10-26T09:37:10.405Z,62.07
2022-10-26T09:38:09.389Z,61.96
2022-10-26T09:39:09.382Z,62.01
2022-10-26T09:40:09.385Z,61.74
2022-10-26T09:41:09.358Z,63.39
2022-10-26T09:42:09.347Z,61.95
2022-10-26T09:43:09.337Z,61.20
2022-10-26T09:44:09.324Z,62.11
2022-10-26T09:45:09.319Z,61.58
2022-10-26T09:46:09.317Z,61.26
2022-10-26T09:47:09.291Z,62.26
2022-10-26T09:48:10.290Z,60.59
2022-10-26T09:49:09.278Z,61.52
2022-10-26T09:50:09.280Z,61.53
2022-10-26T09:51:09.248Z,63.03
2022-10-26T09:52:09.245Z,62.14
2022-10-26T09:53:09.236Z,62.09
2022-10-26T09:54:09.227Z,61.02
2022-10-26T09:55:09.212Z,62.32
2022-10-26T09:56:09.235Z,61.22
2022-10-26T09:57:09.198Z,61.56
2022-10-26T09:58:09.184Z,62.14
2022-10-26T09:59:09.172Z,61.34
2022-10-26T10:00:09.180Z,62.09
2022-10-26T10:01:09.217Z,61.31
2022-10-26T10:02:09.140Z,61.92
2022-10-26T10:03:09.173Z,61.62
2022-10-26T10:04:09.128Z,63.12
2022-10-26T10:05:09.114Z,62.49
2022-10-26T10:06:09.143Z,61.77
2022-10-26T10:07:09.092Z,61.86
2022-10-26T10:08:09.086Z,62.48
2022-10-26T10:09:09.073Z,61.09
2022-10-26T10:10:09.067Z,62.25
2022-10-26T10:11:09.060Z,60.65
2022-10-26T10:12:09.048Z,59.99
2022-10-26T10:13:09.031Z,61.67
2022-10-26T10:14:09.024Z,60.92
2022-10-26T10:15:09.014Z,61.48
2022-10-26T10:16:09.007Z,59.42
2022-10-26T10:17:09.010Z,60.43
2022-10-26T10:18:08.983Z,60.55
2022-10-26T10:19:08.966Z,60.94
2022-10-26T10:20:08.954Z,61.73
2022-10-26T10:21:08.962Z,60.86
2022-10-26T10:22:08.936Z,62.13
2022-10-26T10:23:08.929Z,61.43
2022-10-26T10:24:08.919Z,59.41
2022-10-26T10:25:08.908Z,61.01
2022-10-26T10:26:08.905Z,58.55
2022-10-26T10:27:08.894Z,60.55
2022-10-26T10:28:08.899Z,61.33
2022-10-26T10:29:08.864Z,60.92
2022-10-26T10:30:08.853Z,60.46
2022-10-26T10:31:08.883Z,61.06
2022-10-26T10:32:08.830Z,61.61
2022-10-26T10:33:08.822Z,61.32
2022-10-26T10:34:08.809Z,60.38
2022-10-26T10:35:08.797Z,61.98
2022-10-26T10:36:08.798Z,60.92
2022-10-26T10:37:08.779Z,57.53
2022-10-26T10:38:08.769Z,59.65
2022-10-26T10:39:08.760Z,61.46
2022-10-26T10:40:08.749Z,61.46
2022-10-26T10:41:08.751Z,61.92
2022-10-26T10:42:08.726Z,62.10
2022-10-26T10:43:09.716Z,61.34
2022-10-26T10:44:08.705Z,61.08
2022-10-26T10:45:08.700Z,61.82
2022-10-26T10:46:08.698Z,61.45
2022-10-26T10:47:08.679Z,59.56
2022-10-26T10:48:08.673Z,58.92
2022-10-26T10:49:08.660Z,60.35
2022-10-26T10:50:08.644Z,60.52
2022-10-26T10:51:08.645Z,61.04
2022-10-26T10:52:08.638Z,60.40
2022-10-26T10:53:08.616Z,60.89
2022-10-26T10:54:08.603Z,61.13
2022-10-26T10:55:08.597Z,59.38
2022-10-26T10:56:11.513Z,60.17
2022-10-26T10:57:08.573Z,57.75
2022-10-26T10:58:08.567Z,60.88
2022-10-26T10:59:08.563Z,60.02
2022-10-26T11:00:08.558Z,60.06
2022-10-26T11:01:08.602Z,58.95
2022-10-26T11:02:08.654Z,58.04
2022-10-26T11:03:08.522Z,56.49
2022-10-26T11:04:08.574Z,57.37
2022-10-26T11:05:08.505Z,60.05
2022-10-26T11:06:08.506Z,58.10
2022-10-26T11:07:08.478Z,58.84
2022-10-26T11:08:08.471Z,58.96
2022-10-26T11:09:08.468Z,60.27
2022-10-26T11:10:08.449Z,61.27
2022-10-26T11:11:08.447Z,58.26
2022-10-26T11:12:08.432Z,59.31
2022-10-26T11:13:08.413Z,59.64
2022-10-26T11:14:08.404Z,59.86
2022-10-26T11:15:08.398Z,60.32
2022-10-26T11:16:08.397Z,59.28
2022-10-26T11:17:08.382Z,60.16
2022-10-26T11:18:08.364Z,59.96
2022-10-26T11:19:08.354Z,58.02
2022-10-26T11:20:12.506Z,59.58
2022-10-26T11:21:10.455Z,60.53
2022-10-26T11:22:08.329Z,60.23
2022-10-26T11:23:08.321Z,60.90
2022-10-26T11:24:08.306Z,59.17
2022-10-26T11:25:08.297Z,57.13
2022-10-26T11:26:08.370Z,60.39
2022-10-26T11:27:08.274Z,58.88
2022-10-26T11:28:08.265Z,58.32
2022-10-26T11:29:08.287Z,57.53
2022-10-26T11:30:08.244Z,60.11
2022-10-26T11:31:08.246Z,60.43
2022-10-26T11:32:08.229Z,60.13
2022-10-26T11:33:08.215Z,60.34
2022-10-26T11:34:08.207Z,58.93
2022-10-26T11:35:08.193Z,57.39
2022-10-26T11:36:08.194Z,58.32
2022-10-26T11:37:08.174Z,55.09
2022-10-26T11:38:08.192Z,56.13
2022-10-26T11:39:08.175Z,58.85
2022-10-26T11:40:08.260Z,58.70
2022-10-26T11:41:08.140Z,58.37
2022-10-26T11:42:08.119Z,60.39
2022-10-26T11:43:08.112Z,58.32
2022-10-26T11:44:08.093Z,58.49
2022-10-26T11:45:08.147Z,57.06
2022-10-26T11:46:08.090Z,57.58
2022-10-26T11:47:08.070Z,57.96
2022-10-26T11:48:08.063Z,57.85
2022-10-26T11:49:08.050Z,57.94
2022-10-26T11:50:08.283Z,56.32
2022-10-26T11:51:08.036Z,56.61
2022-10-26T11:52:08.017Z,59.54
2022-10-26T11:53:08.011Z,58.04
2022-10-26T11:54:08.034Z,58.89
2022-10-26T11:55:07.984Z,59.38
2022-10-26T11:56:07.983Z,58.07
2022-10-26T11:57:07.997Z,59.12
2022-10-26T11:58:08.008Z,55.89
2022-10-26T11:59:07.945Z,57.89
2022-10-26T12:00:07.933Z,59.34
2022-10-26T12:01:07.971Z,59.13
2022-10-26T12:02:07.913Z,59.69
2022-10-26T12:03:08.005Z,59.15
2022-10-26T12:04:07.889Z,60.64
2022-10-26T12:05:07.885Z,60.01
2022-10-26T12:06:07.884Z,58.95
2022-10-26T12:07:07.871Z,58.48
2022-10-26T12:08:07.865Z,58.16
2022-10-26T12:09:07.847Z,59.37
2022-10-26T12:10:07.880Z,61.10
2022-10-26T12:12:08.820Z,59.26
2022-10-26T12:13:07.803Z,60.44
2022-10-26T12:14:07.791Z,59.66
2022-10-26T12:15:09.816Z,57.62
2022-10-26T12:16:08.859Z,56.87
2022-10-26T12:17:07.820Z,57.90
2022-10-26T12:18:07.815Z,56.15
2022-10-26T12:19:07.744Z,57.07
2022-10-26T12:20:07.731Z,58.19
2022-10-26T12:21:07.802Z,58.48
2022-10-26T12:22:07.701Z,58.61
2022-10-26T12:23:08.804Z,57.34
2022-10-26T12:24:07.689Z,57.34
2022-10-26T12:25:12.430Z,56.98
2022-10-26T12:26:09.678Z,58.53
2022-10-26T12:27:07.656Z,57.30
2022-10-26T12:28:07.651Z,58.01
2022-10-26T12:29:07.637Z,58.34
2022-10-26T12:30:07.627Z,59.69
2022-10-26T12:31:07.637Z,58.39
2022-10-26T12:32:07.609Z,60.90
2022-10-26T12:33:07.610Z,58.60
2022-10-26T12:34:07.586Z,59.06
2022-10-26T12:35:07.579Z,57.56
2022-10-26T12:37:07.555Z,59.26
2022-10-26T12:38:07.622Z,56.40
2022-10-26T12:39:07.539Z,56.89
2022-10-26T12:40:07.608Z,57.64
2022-10-26T12:41:07.539Z,58.42
2022-10-26T12:42:07.513Z,57.89
2022-10-26T12:43:07.499Z,55.46
2022-10-26T12:44:09.856Z,59.81
2022-10-26T12:45:08.479Z,60.81
2022-10-26T12:46:07.478Z,57.80
2022-10-26T12:47:07.459Z,59.07
2022-10-26T12:48:15.742Z,59.60
2022-10-26T12:49:08.443Z,59.73
2022-10-26T12:50:07.427Z,58.24
2022-10-26T12:51:07.435Z,58.62
2022-10-26T12:52:07.498Z,57.99
2022-10-26T12:53:07.399Z,59.26
2022-10-26T12:54:07.390Z,59.15
2022-10-26T12:55:07.384Z,59.79
2022-10-26T12:56:07.382Z,60.70